Romulus, Alabama
Current Conditions -  °F | °C
As of 1:53 PM on Sunday 23 Nov 2014 (Local Time) from KTCL Reporting Station
Few Clouds Few Clouds  
Wind Chill: 66°   Ceiling: Unl
Heat Index: 66°   Visibility: 10mi
Dew Point: 62°   Wind: 14mph
Humidity: 87%   Direction: 170°S
Pressure: 29.52"   Gusts: 20mph
Location:  33.2658°N, 87.7278°W
Report Text: KTCL 231953Z 17012G17KT 10SM FEW110 19/17 A2952 RMK AO2 RAE36 SLP993 P0006 T01890167
Loading
Personal Weather Stations






























Interactive Weather Map New forecast layout! Learn more

10-Day Weather Forecast

Advertisements
Track Severe Weather on mobile